createdAt,value
2023-03-01T00:02:24.159Z,76.10
2023-03-01T00:05:00.752Z,76.60
2023-03-01T00:07:37.322Z,80.60
2023-03-01T00:10:16.557Z,78.20
2023-03-01T00:12:53.207Z,74.80
2023-03-01T00:15:29.887Z,75.90
2023-03-01T00:18:06.411Z,76.50
2023-03-01T00:20:43.145Z,78.00
2023-03-01T00:23:19.403Z,79.00
2023-03-01T00:25:56.452Z,74.50
2023-03-01T00:28:33.428Z,72.70
2023-03-01T00:31:15.342Z,79.60
2023-03-01T00:36:29.869Z,72.50
2023-03-01T00:39:08.441Z,74.60
2023-03-01T00:41:45.485Z,72.10
2023-03-01T00:44:21.894Z,67.50
2023-03-01T00:46:59.486Z,66.90
2023-03-01T00:49:36.256Z,73.80
2023-03-01T00:52:12.833Z,68.30
2023-03-01T00:54:49.562Z,67.70
2023-03-01T00:57:25.995Z,76.40
2023-03-01T01:00:02.756Z,74.20
2023-03-01T01:02:41.011Z,70.60
2023-03-01T01:05:22.107Z,67.50
2023-03-01T01:07:58.420Z,73.30
2023-03-01T01:10:37.082Z,63.70
2023-03-01T01:13:13.841Z,72.50
2023-03-01T01:15:50.266Z,70.80
2023-03-01T01:18:26.726Z,76.90
2023-03-01T01:21:07.645Z,68.90
2023-03-01T01:23:45.765Z,71.00
2023-03-01T01:26:25.736Z,70.40
2023-03-01T01:29:03.194Z,68.80
2023-03-01T01:31:42.217Z,76.10
2023-03-01T01:34:23.863Z,72.80
2023-03-01T01:37:03.906Z,71.20
2023-03-01T01:39:40.580Z,66.80
2023-03-01T01:42:21.835Z,66.80
2023-03-01T01:45:36.375Z,74.00
2023-03-01T01:48:20.957Z,71.30
2023-03-01T01:51:04.416Z,68.10
2023-03-01T01:53:44.578Z,75.60
2023-03-01T01:56:23.074Z,78.20
2023-03-01T01:59:00.342Z,71.20
2023-03-01T02:01:37.161Z,74.40
2023-03-01T02:04:13.877Z,76.10
2023-03-01T02:07:02.476Z,78.30
2023-03-01T02:09:40.211Z,78.90
2023-03-01T02:12:19.235Z,73.30
2023-03-01T02:14:55.670Z,84.80
2023-03-01T02:17:32.426Z,80.20
2023-03-01T02:20:25.585Z,75.40
2023-03-01T02:23:02.251Z,74.30
2023-03-01T02:25:54.829Z,89.90
2023-03-01T02:28:36.435Z,75.10
2023-03-01T02:31:34.961Z,72.00
2023-03-01T02:34:14.683Z,78.80
2023-03-01T02:36:57.121Z,83.60
2023-03-01T02:39:43.008Z,78.70
2023-03-01T02:42:27.298Z,77.30
2023-03-01T02:45:03.872Z,78.70
2023-03-01T02:47:40.309Z,84.00
2023-03-01T02:50:54.696Z,81.90
2023-03-01T02:53:47.354Z,81.50
2023-03-01T02:56:24.107Z,75.00
2023-03-01T02:59:02.131Z,82.80
2023-03-01T03:01:39.095Z,81.60
2023-03-01T03:04:22.134Z,83.30
2023-03-01T03:06:59.012Z,83.70
2023-03-01T03:09:35.927Z,89.30
2023-03-01T03:12:13.116Z,77.10
2023-03-01T03:14:50.159Z,84.50
2023-03-01T03:17:26.787Z,84.20
2023-03-01T03:20:04.104Z,81.30
2023-03-01T03:22:41.613Z,74.00
2023-03-01T03:25:18.689Z,84.00
2023-03-01T03:27:57.865Z,80.40
2023-03-01T03:30:35.956Z,89.40
2023-03-01T03:33:15.024Z,76.30
2023-03-01T03:35:54.013Z,85.40
2023-03-01T03:38:30.588Z,93.40
2023-03-01T03:41:12.173Z,80.40
2023-03-01T03:43:50.154Z,76.60
2023-03-01T03:46:27.313Z,85.10
2023-03-01T03:49:03.464Z,80.30
2023-03-01T03:51:40.192Z,83.70
2023-03-01T03:54:16.783Z,81.70
2023-03-01T03:56:53.181Z,71.10
2023-03-01T03:59:31.104Z,81.00
2023-03-01T04:02:09.950Z,82.20
2023-03-01T04:04:46.681Z,74.80
2023-03-01T04:07:23.054Z,72.40
2023-03-01T04:09:59.460Z,85.00
2023-03-01T04:12:36.269Z,81.60
2023-03-01T04:15:15.664Z,75.00
2023-03-01T04:17:53.982Z,65.60
2023-03-01T04:20:35.654Z,77.10
2023-03-01T04:23:17.115Z,80.90
2023-03-01T04:25:56.630Z,77.90
2023-03-01T04:28:36.012Z,75.30
2023-03-01T04:31:17.481Z,77.50
2023-03-01T04:33:57.103Z,81.90
2023-03-01T04:36:36.889Z,70.60
2023-03-01T04:39:14.283Z,78.00
2023-03-01T04:41:50.582Z,72.70
2023-03-01T04:44:27.016Z,64.00
2023-03-01T04:47:03.348Z,72.90
2023-03-01T04:49:42.434Z,74.80
2023-03-01T04:52:19.001Z,66.90
2023-03-01T04:54:55.238Z,74.90
2023-03-01T04:57:31.613Z,70.80
2023-03-01T05:00:22.047Z,133.00
2023-03-01T05:03:02.756Z,96.80
2023-03-01T05:05:41.906Z,73.60
2023-03-01T05:08:19.493Z,84.50
2023-03-01T05:10:57.790Z,77.40
2023-03-01T05:13:34.790Z,78.20
2023-03-01T05:16:13.486Z,84.80
2023-03-01T05:18:51.521Z,71.80
2023-03-01T05:21:28.534Z,81.20
2023-03-01T05:24:05.501Z,78.20
2023-03-01T05:26:42.574Z,84.80
2023-03-01T05:29:20.266Z,77.90
2023-03-01T05:31:59.213Z,80.20
2023-03-01T05:34:40.046Z,71.10
2023-03-01T05:37:16.471Z,67.60
2023-03-01T05:39:52.785Z,71.20
2023-03-01T05:42:29.032Z,72.50
2023-03-01T05:45:10.722Z,68.90
2023-03-01T05:47:49.563Z,71.40
2023-03-01T05:50:29.353Z,71.70
2023-03-01T05:53:09.034Z,78.20
2023-03-01T05:55:48.403Z,77.80
2023-03-01T05:58:25.643Z,73.70
2023-03-01T06:01:02.043Z,66.60
2023-03-01T06:03:38.524Z,68.70
2023-03-01T06:06:15.387Z,84.10
2023-03-01T06:08:52.850Z,81.70
2023-03-01T06:11:29.326Z,75.40
2023-03-01T06:14:07.523Z,72.70
2023-03-01T06:16:44.101Z,80.10
2023-03-01T06:19:20.399Z,77.90
2023-03-01T06:21:56.725Z,84.60
2023-03-01T06:24:34.283Z,78.30
2023-03-01T06:27:10.527Z,77.50
2023-03-01T06:29:46.827Z,86.20
2023-03-01T06:32:23.229Z,95.40
2023-03-01T06:35:00.463Z,84.90
2023-03-01T06:37:37.433Z,76.30
2023-03-01T06:40:17.437Z,76.90
2023-03-01T06:42:55.785Z,82.00
2023-03-01T06:45:33.434Z,81.60
2023-03-01T06:48:11.509Z,81.70
2023-03-01T06:50:48.112Z,88.00
2023-03-01T06:53:24.782Z,78.40
2023-03-01T06:56:02.992Z,77.10
2023-03-01T06:58:39.331Z,68.20
2023-03-01T07:01:16.269Z,61.20
2023-03-01T07:03:52.569Z,92.10
2023-03-01T07:06:29.819Z,70.90
2023-03-01T07:09:06.933Z,64.70
2023-03-01T07:11:43.740Z,68.30
2023-03-01T07:14:20.834Z,68.60
2023-03-01T07:16:57.633Z,71.50
2023-03-01T07:19:34.193Z,72.00
2023-03-01T07:22:11.752Z,62.30
2023-03-01T07:24:48.628Z,71.80
2023-03-01T07:27:24.871Z,67.60
2023-03-01T07:30:01.277Z,65.80
2023-03-01T07:32:37.649Z,61.30
2023-03-01T07:35:16.026Z,65.90
2023-03-01T07:37:52.376Z,193.40
2023-03-01T07:40:28.700Z,74.10
2023-03-01T07:43:05.468Z,78.60
2023-03-01T07:45:41.808Z,70.40
2023-03-01T07:48:18.315Z,58.40
2023-03-01T07:50:54.552Z,53.60
2023-03-01T07:53:32.451Z,52.60
2023-03-01T07:56:12.475Z,51.30
2023-03-01T07:58:51.197Z,65.80
2023-03-01T08:01:27.897Z,49.80
2023-03-01T08:04:08.126Z,64.80
2023-03-01T08:06:44.399Z,69.00
2023-03-01T08:09:20.778Z,66.10
2023-03-01T08:11:58.341Z,67.30
2023-03-01T08:14:35.189Z,60.60
2023-03-01T08:17:11.616Z,61.90
2023-03-01T08:19:48.197Z,56.20
2023-03-01T08:22:24.449Z,64.90
2023-03-01T08:25:00.816Z,55.70
2023-03-01T08:27:37.180Z,63.80
2023-03-01T08:30:17.671Z,54.00
2023-03-01T08:32:54.285Z,52.20
2023-03-01T08:35:30.699Z,51.00
2023-03-01T08:38:06.959Z,53.70
2023-03-01T08:40:43.452Z,49.10
2023-03-01T08:43:21.502Z,56.30
2023-03-01T08:45:59.323Z,45.70
2023-03-01T08:48:36.104Z,43.00
2023-03-01T08:51:21.676Z,40.00
2023-03-01T08:53:58.655Z,35.40
2023-03-01T08:56:35.683Z,36.30
2023-03-01T08:59:13.889Z,39.50
2023-03-01T09:01:50.757Z,45.10
2023-03-01T09:04:27.694Z,50.10
2023-03-01T09:07:04.481Z,45.60
2023-03-01T09:09:41.331Z,42.30
2023-03-01T09:12:18.076Z,42.70
2023-03-01T09:14:54.549Z,45.10
2023-03-01T09:17:31.248Z,43.50
2023-03-01T09:20:09.637Z,42.70
2023-03-01T09:22:46.168Z,42.90
2023-03-01T09:25:22.503Z,38.50
2023-03-01T09:28:00.005Z,34.50
2023-03-01T09:30:36.787Z,32.80
2023-03-01T09:33:15.620Z,39.50
2023-03-01T09:35:52.046Z,36.10
2023-03-01T09:38:29.277Z,33.70
2023-03-01T09:41:11.637Z,32.50
2023-03-01T09:43:56.483Z,32.40
2023-03-01T09:46:38.703Z,31.80
2023-03-01T09:52:11.871Z,25.30
2023-03-01T09:54:48.553Z,28.90
2023-03-01T09:57:44.881Z,29.50
2023-03-01T10:00:48.799Z,26.00
2023-03-01T10:03:38.917Z,30.00
2023-03-01T10:06:34.573Z,28.10
2023-03-01T10:09:18.813Z,23.20
2023-03-01T10:11:59.058Z,21.80
2023-03-01T10:14:43.201Z,26.50
2023-03-01T10:17:30.902Z,22.50
2023-03-01T10:20:28.459Z,22.00
2023-03-01T10:23:05.151Z,25.90
2023-03-01T10:26:07.845Z,19.20
2023-03-01T10:29:03.513Z,24.40
2023-03-01T10:31:49.164Z,31.90
2023-03-01T10:34:33.382Z,27.80
2023-03-01T10:37:22.046Z,30.90
2023-03-01T10:40:10.004Z,28.80
2023-03-01T10:42:53.308Z,31.30
2023-03-01T10:45:41.607Z,31.70
2023-03-01T10:48:25.476Z,34.10
2023-03-01T10:51:21.287Z,39.80
2023-03-01T10:53:57.846Z,41.80
2023-03-01T10:56:50.603Z,32.60
2023-03-01T10:59:35.353Z,42.00
2023-03-01T11:02:30.196Z,43.30
2023-03-01T11:05:24.754Z,40.10
2023-03-01T11:08:04.248Z,40.30
2023-03-01T11:10:41.976Z,45.10
2023-03-01T11:13:23.103Z,39.80
2023-03-01T11:16:12.595Z,38.80
2023-03-01T11:19:00.621Z,37.20
2023-03-01T11:21:41.770Z,36.50
2023-03-01T11:24:21.712Z,35.70
2023-03-01T11:27:02.085Z,32.70
2023-03-01T11:29:49.229Z,32.80
2023-03-01T11:32:30.533Z,33.10
2023-03-01T11:35:17.474Z,33.20
2023-03-01T11:38:15.106Z,35.70
2023-03-01T11:41:00.298Z,30.80
2023-03-01T11:43:51.185Z,31.10
2023-03-01T11:47:23.967Z,32.30
2023-03-01T11:50:22.541Z,31.20
2023-03-01T11:53:33.733Z,30.20
2023-03-01T11:56:31.096Z,28.60
2023-03-01T11:59:51.487Z,27.60
2023-03-01T12:03:26.867Z,25.90
2023-03-01T12:06:37.151Z,24.90
2023-03-01T12:10:10.466Z,26.40
2023-03-01T12:13:24.747Z,26.00
2023-03-01T12:16:42.991Z,34.30
2023-03-01T12:19:46.447Z,26.00
2023-03-01T12:22:41.670Z,31.90
2023-03-01T12:25:44.011Z,28.20
2023-03-01T12:29:02.608Z,33.80
2023-03-01T12:32:03.210Z,31.20
2023-03-01T12:35:18.672Z,34.80
2023-03-01T12:38:09.818Z,32.10
2023-03-01T12:41:36.470Z,35.60
2023-03-01T12:44:50.971Z,33.00
2023-03-01T12:47:56.567Z,28.30
2023-03-01T12:50:44.753Z,32.20
2023-03-01T12:53:31.832Z,31.40
2023-03-01T12:56:15.621Z,36.20
2023-03-01T12:59:11.211Z,34.90
2023-03-01T13:01:59.282Z,30.10
2023-03-01T13:04:56.583Z,26.60
2023-03-01T13:07:43.666Z,23.60
2023-03-01T13:10:37.005Z,25.70
2023-03-01T13:13:26.848Z,27.80
2023-03-01T13:16:40.021Z,28.20
2023-03-01T13:19:22.165Z,33.50
2023-03-01T13:22:00.127Z,23.70
2023-03-01T13:24:42.427Z,27.70
2023-03-01T13:27:31.075Z,27.60
2023-03-01T13:30:33.202Z,29.30
2023-03-01T13:33:50.880Z,26.60
2023-03-01T13:37:20.906Z,24.10
2023-03-01T13:39:59.831Z,25.10
2023-03-01T13:42:59.252Z,26.70
2023-03-01T13:45:47.678Z,23.70
2023-03-01T13:48:31.598Z,21.50
2023-03-01T13:51:13.323Z,25.40
2023-03-01T13:53:54.064Z,21.60
2023-03-01T13:56:38.943Z,22.60
2023-03-01T13:59:23.458Z,20.60
2023-03-01T14:02:04.708Z,24.80
2023-03-01T14:04:41.723Z,24.40
2023-03-01T14:07:26.122Z,21.90
2023-03-01T14:10:08.482Z,24.30
2023-03-01T14:13:01.305Z,24.90
2023-03-01T14:15:52.981Z,25.10
2023-03-01T14:18:38.502Z,20.40
2023-03-01T14:21:19.829Z,23.40
2023-03-01T14:23:56.661Z,18.50
2023-03-01T14:26:34.246Z,20.50
2023-03-01T14:29:27.974Z,21.30
2023-03-01T14:32:23.354Z,24.00
2023-03-01T14:35:01.428Z,17.20
2023-03-01T14:37:39.070Z,18.90
2023-03-01T14:40:35.585Z,18.90
2023-03-01T14:43:26.937Z,15.20
2023-03-01T14:46:03.868Z,19.40
2023-03-01T14:48:40.295Z,17.00
2023-03-01T14:51:17.755Z,18.60
2023-03-01T14:53:56.064Z,19.20
2023-03-01T14:56:47.989Z,17.70
2023-03-01T15:02:04.134Z,16.70
2023-03-01T15:04:41.983Z,16.60
2023-03-01T15:07:20.671Z,16.10
2023-03-01T15:09:57.328Z,17.10
2023-03-01T15:12:47.103Z,15.90
2023-03-01T15:15:43.337Z,18.30
2023-03-01T15:18:28.864Z,18.90
2023-03-01T15:21:21.984Z,17.70
2023-03-01T15:24:21.533Z,19.80
2023-03-01T15:27:07.930Z,20.90
2023-03-01T15:29:52.911Z,18.50
2023-03-01T15:32:35.077Z,22.10
2023-03-01T15:35:49.066Z,19.70
2023-03-01T15:38:57.839Z,20.10
2023-03-01T15:41:40.174Z,19.00
2023-03-01T15:44:43.333Z,21.80
2023-03-01T15:47:38.315Z,19.50
2023-03-01T15:50:27.055Z,18.90
2023-03-01T15:53:07.998Z,18.30
2023-03-01T15:55:45.084Z,22.80
2023-03-01T15:59:33.944Z,23.80
2023-03-01T16:02:16.132Z,20.10
2023-03-01T16:04:52.987Z,25.40
2023-03-01T16:07:29.734Z,24.00
2023-03-01T16:10:07.417Z,25.10
2023-03-01T16:12:43.737Z,31.80
2023-03-01T16:15:25.187Z,21.20
2023-03-01T16:18:01.879Z,21.00
2023-03-01T16:20:38.538Z,30.80
2023-03-01T16:23:16.661Z,24.50
2023-03-01T16:25:53.179Z,23.20
2023-03-01T16:28:30.336Z,21.30
2023-03-01T16:31:07.688Z,28.40
2023-03-01T16:33:50.421Z,22.50
2023-03-01T16:36:29.211Z,25.50
2023-03-01T16:39:07.725Z,24.10
2023-03-01T16:41:44.195Z,29.50
2023-03-01T16:44:21.496Z,27.80
2023-03-01T16:46:57.966Z,34.40
2023-03-01T16:49:34.382Z,32.70
2023-03-01T16:52:11.109Z,25.60
2023-03-01T16:54:47.497Z,33.10
2023-03-01T16:57:24.050Z,35.50
2023-03-01T17:00:01.156Z,31.80
2023-03-01T17:02:37.867Z,33.50
2023-03-01T17:05:15.588Z,28.00
2023-03-01T17:07:52.144Z,26.10
2023-03-01T17:10:28.984Z,33.20
2023-03-01T17:13:05.840Z,35.30
2023-03-01T17:15:45.258Z,33.90
2023-03-01T17:18:21.572Z,49.30
2023-03-01T17:20:58.294Z,45.70
2023-03-01T17:23:36.590Z,40.50
2023-03-01T17:26:13.804Z,39.40
2023-03-01T17:28:52.476Z,38.80
2023-03-01T17:31:29.961Z,52.90
2023-03-01T17:34:06.777Z,48.60
2023-03-01T17:36:44.910Z,37.30
2023-03-01T17:39:26.168Z,34.30
2023-03-01T17:42:03.474Z,31.60
2023-03-01T17:44:42.901Z,36.80
2023-03-01T17:47:20.173Z,41.00
2023-03-01T17:49:56.681Z,40.10
2023-03-01T17:52:33.436Z,50.70
2023-03-01T17:55:12.867Z,42.60
2023-03-01T17:57:49.320Z,37.70
2023-03-01T18:00:29.921Z,37.60
2023-03-01T18:03:07.883Z,60.80
2023-03-01T18:05:44.545Z,48.40
2023-03-01T18:08:21.032Z,46.30
2023-03-01T18:11:02.965Z,45.70
2023-03-01T18:16:19.423Z,44.30
2023-03-01T18:19:00.367Z,45.50
2023-03-01T18:21:37.296Z,56.30
2023-03-01T18:24:14.279Z,40.00
2023-03-01T18:26:50.838Z,37.10
2023-03-01T18:29:28.522Z,40.20
2023-03-01T18:32:05.124Z,45.50
2023-03-01T18:34:42.245Z,45.00
2023-03-01T18:37:19.303Z,47.50
2023-03-01T18:39:58.636Z,46.00
2023-03-01T18:42:34.862Z,45.30
2023-03-01T18:45:17.161Z,53.00
2023-03-01T18:50:29.608Z,37.90
2023-03-01T18:53:06.118Z,43.70
2023-03-01T18:55:44.176Z,46.90
2023-03-01T18:58:20.516Z,43.50
2023-03-01T19:00:57.006Z,52.50
2023-03-01T19:03:34.611Z,51.30
2023-03-01T19:06:12.346Z,66.90
2023-03-01T19:08:51.332Z,53.30
2023-03-01T19:11:31.136Z,53.00
2023-03-01T19:14:08.606Z,52.80
2023-03-01T19:17:00.602Z,102.20
2023-03-01T19:19:37.409Z,72.10
2023-03-01T19:22:13.890Z,61.10
2023-03-01T19:24:50.957Z,60.00
2023-03-01T19:27:27.371Z,75.30
2023-03-01T19:30:04.064Z,83.20
2023-03-01T19:32:40.848Z,87.10
2023-03-01T19:35:31.268Z,82.20
2023-03-01T19:38:08.085Z,75.20
2023-03-01T19:40:45.074Z,91.00
2023-03-01T19:43:22.528Z,89.30
2023-03-01T19:46:00.281Z,87.40
2023-03-01T19:48:36.834Z,89.60
2023-03-01T19:51:13.925Z,92.50
2023-03-01T19:53:50.856Z,91.50
2023-03-01T19:56:27.550Z,95.80
2023-03-01T19:59:05.154Z,90.00
2023-03-01T20:01:42.501Z,82.90
2023-03-01T20:04:19.440Z,81.70
2023-03-01T20:06:56.268Z,78.20
2023-03-01T20:09:33.031Z,83.40
2023-03-01T20:12:10.818Z,92.40
2023-03-01T20:14:48.875Z,82.20
2023-03-01T20:17:26.103Z,89.90
2023-03-01T20:20:02.903Z,80.30
2023-03-01T20:22:40.010Z,76.00
2023-03-01T20:25:17.688Z,75.40
2023-03-01T20:27:54.414Z,94.80
2023-03-01T20:30:31.470Z,97.50
2023-03-01T20:33:08.059Z,100.80
2023-03-01T20:35:47.034Z,94.20
2023-03-01T20:38:27.418Z,101.70
2023-03-01T20:41:12.163Z,102.50
2023-03-01T20:43:55.054Z,104.90
2023-03-01T20:46:33.357Z,108.80
2023-03-01T20:49:11.233Z,109.40
2023-03-01T20:51:48.493Z,110.20
2023-03-01T20:55:25.141Z,117.80
2023-03-01T20:58:02.323Z,103.70
2023-03-01T21:00:39.731Z,108.20
2023-03-01T21:03:16.370Z,121.70
2023-03-01T21:05:55.977Z,121.90
2023-03-01T21:08:33.413Z,133.60
2023-03-01T21:11:10.918Z,132.00
2023-03-01T21:13:47.440Z,115.90
2023-03-01T21:16:25.299Z,132.10
2023-03-01T21:19:05.751Z,116.10
2023-03-01T21:21:42.328Z,128.50
2023-03-01T21:24:19.035Z,148.50
2023-03-01T21:26:55.464Z,129.50
2023-03-01T21:29:31.996Z,127.50
2023-03-01T21:32:10.289Z,129.70
2023-03-01T21:34:48.482Z,125.70
2023-03-01T21:37:28.157Z,126.90
2023-03-01T21:40:06.592Z,133.40
2023-03-01T21:42:44.565Z,132.20
2023-03-01T21:45:21.287Z,140.10
2023-03-01T21:47:58.097Z,134.10
2023-03-01T21:50:34.824Z,144.30
2023-03-01T21:53:11.290Z,127.70
2023-03-01T21:55:54.553Z,136.80
2023-03-01T21:58:31.710Z,136.10
2023-03-01T22:01:57.977Z,143.10
2023-03-01T22:04:34.514Z,167.50
2023-03-01T22:07:11.603Z,149.60
2023-03-01T22:09:47.898Z,160.00
2023-03-01T22:12:24.571Z,152.70
2023-03-01T22:15:01.770Z,153.20
2023-03-01T22:17:38.229Z,147.60
2023-03-01T22:20:17.618Z,151.20
2023-03-01T22:22:53.937Z,138.30
2023-03-01T22:25:30.809Z,133.50
2023-03-01T22:28:07.447Z,132.40
2023-03-01T22:30:43.846Z,126.70
2023-03-01T22:33:20.141Z,135.30
2023-03-01T22:35:59.263Z,129.60
2023-03-01T22:38:35.557Z,133.90
2023-03-01T22:41:12.664Z,119.70
2023-03-01T22:43:49.263Z,126.90
2023-03-01T22:46:26.620Z,127.30
2023-03-01T22:49:03.124Z,140.60
2023-03-01T22:51:44.215Z,126.90
2023-03-01T22:54:22.479Z,131.80
2023-03-01T22:56:58.813Z,124.50
2023-03-01T22:59:35.236Z,123.90
2023-03-01T23:02:11.787Z,124.20
2023-03-01T23:04:48.800Z,120.90
2023-03-01T23:07:25.373Z,112.60
2023-03-01T23:10:02.847Z,123.60
2023-03-01T23:12:39.527Z,102.30
2023-03-01T23:15:18.079Z,110.50
2023-03-01T23:17:54.349Z,109.80
2023-03-01T23:20:31.485Z,117.40
2023-03-01T23:23:08.054Z,121.70
2023-03-01T23:25:53.336Z,110.10
2023-03-01T23:28:31.046Z,113.50
2023-03-01T23:31:11.088Z,106.10
2023-03-01T23:33:49.105Z,108.00
2023-03-01T23:36:28.887Z,115.70
2023-03-01T23:39:07.993Z,104.70
2023-03-01T23:41:44.415Z,117.40
2023-03-01T23:44:23.768Z,111.00
2023-03-01T23:47:00.461Z,120.00
2023-03-01T23:49:36.645Z,110.50
2023-03-01T23:52:15.351Z,112.10
2023-03-01T23:54:52.775Z,111.60
2023-03-01T23:57:29.420Z,110.70
